sensor_id;sensor_type;location;lat;lon;timestamp;P1;durP1;ratioP1;P2;durP2;ratioP2
71836;SDS011;59686;51.716;7.016;2024-03-08T00:01:55;17.20;;;12.87;;
71836;SDS011;59686;51.716;7.016;2024-03-08T00:04:21;15.17;;;12.70;;
71836;SDS011;59686;51.716;7.016;2024-03-08T00:06:47;15.53;;;12.37;;
71836;SDS011;59686;51.716;7.016;2024-03-08T00:09:13;16.20;;;12.77;;
71836;SDS011;59686;51.716;7.016;2024-03-08T00:11:39;14.60;;;12.23;;
71836;SDS011;59686;51.716;7.016;2024-03-08T00:14:04;15.17;;;13.00;;
71836;SDS011;59686;51.716;7.016;2024-03-08T00:16:32;16.37;;;13.43;;
71836;SDS011;59686;51.716;7.016;2024-03-08T00:18:58;15.33;;;13.10;;
71836;SDS011;59686;51.716;7.016;2024-03-08T00:21:24;16.53;;;13.03;;
71836;SDS011;59686;51.716;7.016;2024-03-08T00:23:51;16.07;;;12.87;;
71836;SDS011;59686;51.716;7.016;2024-03-08T00:26:19;14.97;;;13.10;;
71836;SDS011;59686;51.716;7.016;2024-03-08T00:28:45;15.20;;;13.07;;
71836;SDS011;59686;51.716;7.016;2024-03-08T00:31:10;16.10;;;13.20;;
71836;SDS011;59686;51.716;7.016;2024-03-08T00:33:36;18.07;;;14.03;;
71836;SDS011;59686;51.716;7.016;2024-03-08T00:36:02;17.03;;;13.13;;
71836;SDS011;59686;51.716;7.016;2024-03-08T00:38:27;15.63;;;13.33;;
71836;SDS011;59686;51.716;7.016;2024-03-08T00:40:53;17.93;;;13.97;;
71836;SDS011;59686;51.716;7.016;2024-03-08T00:43:19;16.33;;;13.53;;
71836;SDS011;59686;51.716;7.016;2024-03-08T00:45:44;17.17;;;14.17;;
71836;SDS011;59686;51.716;7.016;2024-03-08T00:48:10;18.13;;;13.53;;
71836;SDS011;59686;51.716;7.016;2024-03-08T00:50:36;16.57;;;13.27;;
71836;SDS011;59686;51.716;7.016;2024-03-08T00:53:02;17.00;;;14.10;;
71836;SDS011;59686;51.716;7.016;2024-03-08T00:55:28;16.53;;;14.23;;
71836;SDS011;59686;51.716;7.016;2024-03-08T00:57:54;15.47;;;13.80;;
71836;SDS011;59686;51.716;7.016;2024-03-08T01:00:20;17.13;;;14.33;;
71836;SDS011;59686;51.716;7.016;2024-03-08T01:02:46;17.23;;;13.50;;
71836;SDS011;59686;51.716;7.016;2024-03-08T01:05:12;16.73;;;14.30;;
71836;SDS011;59686;51.716;7.016;2024-03-08T01:07:38;17.47;;;14.47;;
71836;SDS011;59686;51.716;7.016;2024-03-08T01:10:04;17.57;;;14.47;;
71836;SDS011;59686;51.716;7.016;2024-03-08T01:12:36;17.83;;;14.13;;
71836;SDS011;59686;51.716;7.016;2024-03-08T01:15:03;18.83;;;15.07;;
71836;SDS011;59686;51.716;7.016;2024-03-08T01:17:29;19.97;;;15.80;;
71836;SDS011;59686;51.716;7.016;2024-03-08T01:19:54;18.10;;;14.90;;
71836;SDS011;59686;51.716;7.016;2024-03-08T01:22:20;17.87;;;14.30;;
71836;SDS011;59686;51.716;7.016;2024-03-08T01:24:45;16.93;;;14.43;;
71836;SDS011;59686;51.716;7.016;2024-03-08T01:27:11;19.80;;;14.80;;
71836;SDS011;59686;51.716;7.016;2024-03-08T01:29:37;15.43;;;13.77;;
71836;SDS011;59686;51.716;7.016;2024-03-08T01:32:03;18.83;;;14.87;;
71836;SDS011;59686;51.716;7.016;2024-03-08T01:34:29;17.47;;;14.73;;
71836;SDS011;59686;51.716;7.016;2024-03-08T01:36:54;18.77;;;14.40;;
71836;SDS011;59686;51.716;7.016;2024-03-08T01:39:23;19.33;;;15.20;;
71836;SDS011;59686;51.716;7.016;2024-03-08T01:41:49;18.57;;;14.67;;
71836;SDS011;59686;51.716;7.016;2024-03-08T01:44:15;18.07;;;15.10;;
71836;SDS011;59686;51.716;7.016;2024-03-08T01:46:45;17.50;;;14.53;;
71836;SDS011;59686;51.716;7.016;2024-03-08T01:49:12;18.37;;;15.53;;
71836;SDS011;59686;51.716;7.016;2024-03-08T01:51:41;16.13;;;13.87;;
71836;SDS011;59686;51.716;7.016;2024-03-08T01:54:07;19.13;;;15.43;;
71836;SDS011;59686;51.716;7.016;2024-03-08T01:56:35;17.63;;;14.53;;
71836;SDS011;59686;51.716;7.016;2024-03-08T01:59:02;16.80;;;14.67;;
71836;SDS011;59686;51.716;7.016;2024-03-08T02:01:28;19.53;;;15.93;;
71836;SDS011;59686;51.716;7.016;2024-03-08T02:03:55;19.37;;;15.80;;
71836;SDS011;59686;51.716;7.016;2024-03-08T02:06:21;20.53;;;16.03;;
71836;SDS011;59686;51.716;7.016;2024-03-08T02:08:50;19.03;;;15.63;;
71836;SDS011;59686;51.716;7.016;2024-03-08T02:11:16;18.37;;;15.00;;
71836;SDS011;59686;51.716;7.016;2024-03-08T02:13:42;22.63;;;16.30;;
71836;SDS011;59686;51.716;7.016;2024-03-08T02:16:08;17.90;;;16.00;;
71836;SDS011;59686;51.716;7.016;2024-03-08T02:18:34;19.27;;;15.53;;
71836;SDS011;59686;51.716;7.016;2024-03-08T02:21:00;21.40;;;15.97;;
71836;SDS011;59686;51.716;7.016;2024-03-08T02:23:27;18.97;;;14.77;;
71836;SDS011;59686;51.716;7.016;2024-03-08T02:25:54;18.80;;;14.77;;
71836;SDS011;59686;51.716;7.016;2024-03-08T02:28:21;17.27;;;14.83;;
71836;SDS011;59686;51.716;7.016;2024-03-08T02:30:47;18.23;;;14.93;;
71836;SDS011;59686;51.716;7.016;2024-03-08T02:33:14;20.07;;;15.67;;
71836;SDS011;59686;51.716;7.016;2024-03-08T02:35:44;18.90;;;15.43;;
71836;SDS011;59686;51.716;7.016;2024-03-08T02:38:14;19.50;;;15.10;;
71836;SDS011;59686;51.716;7.016;2024-03-08T02:40:44;19.27;;;15.07;;
71836;SDS011;59686;51.716;7.016;2024-03-08T02:43:11;19.23;;;15.33;;
71836;SDS011;59686;51.716;7.016;2024-03-08T02:45:38;18.23;;;14.57;;
71836;SDS011;59686;51.716;7.016;2024-03-08T02:48:04;18.67;;;15.87;;
71836;SDS011;59686;51.716;7.016;2024-03-08T02:50:33;19.10;;;15.47;;
71836;SDS011;59686;51.716;7.016;2024-03-08T02:53:03;19.13;;;15.37;;
71836;SDS011;59686;51.716;7.016;2024-03-08T02:55:29;19.27;;;15.40;;
71836;SDS011;59686;51.716;7.016;2024-03-08T02:57:55;17.40;;;14.83;;
71836;SDS011;59686;51.716;7.016;2024-03-08T03:00:21;17.43;;;14.93;;
71836;SDS011;59686;51.716;7.016;2024-03-08T03:02:48;20.33;;;15.03;;
71836;SDS011;59686;51.716;7.016;2024-03-08T03:05:17;20.13;;;15.83;;
71836;SDS011;59686;51.716;7.016;2024-03-08T03:07:42;19.10;;;16.03;;
71836;SDS011;59686;51.716;7.016;2024-03-08T03:10:08;20.47;;;15.50;;
71836;SDS011;59686;51.716;7.016;2024-03-08T03:12:34;18.83;;;15.27;;
71836;SDS011;59686;51.716;7.016;2024-03-08T03:14:59;18.37;;;15.33;;
71836;SDS011;59686;51.716;7.016;2024-03-08T03:17:25;18.93;;;14.83;;
71836;SDS011;59686;51.716;7.016;2024-03-08T03:19:51;19.77;;;15.67;;
71836;SDS011;59686;51.716;7.016;2024-03-08T03:22:18;18.90;;;14.93;;
71836;SDS011;59686;51.716;7.016;2024-03-08T03:24:44;18.77;;;14.93;;
71836;SDS011;59686;51.716;7.016;2024-03-08T03:27:11;17.87;;;15.03;;
71836;SDS011;59686;51.716;7.016;2024-03-08T03:29:38;20.23;;;15.93;;
71836;SDS011;59686;51.716;7.016;2024-03-08T03:32:05;20.87;;;15.87;;
71836;SDS011;59686;51.716;7.016;2024-03-08T03:34:33;17.57;;;14.43;;
71836;SDS011;59686;51.716;7.016;2024-03-08T03:37:01;17.93;;;15.37;;
71836;SDS011;59686;51.716;7.016;2024-03-08T03:39:28;20.37;;;16.53;;
71836;SDS011;59686;51.716;7.016;2024-03-08T03:41:57;20.37;;;15.47;;
71836;SDS011;59686;51.716;7.016;2024-03-08T03:44:23;19.90;;;14.80;;
71836;SDS011;59686;51.716;7.016;2024-03-08T03:46:49;18.27;;;14.97;;
71836;SDS011;59686;51.716;7.016;2024-03-08T03:49:17;18.27;;;15.50;;
71836;SDS011;59686;51.716;7.016;2024-03-08T03:51:43;18.43;;;15.57;;
71836;SDS011;59686;51.716;7.016;2024-03-08T03:54:09;19.13;;;15.27;;
71836;SDS011;59686;51.716;7.016;2024-03-08T03:56:35;19.73;;;15.77;;
71836;SDS011;59686;51.716;7.016;2024-03-08T03:59:01;17.97;;;14.97;;
71836;SDS011;59686;51.716;7.016;2024-03-08T04:01:27;17.97;;;15.10;;
71836;SDS011;59686;51.716;7.016;2024-03-08T04:03:52;18.90;;;15.33;;
71836;SDS011;59686;51.716;7.016;2024-03-08T04:06:18;18.00;;;15.03;;
71836;SDS011;59686;51.716;7.016;2024-03-08T04:08:44;18.73;;;15.33;;
71836;SDS011;59686;51.716;7.016;2024-03-08T04:11:09;19.23;;;15.60;;
71836;SDS011;59686;51.716;7.016;2024-03-08T04:13:35;18.67;;;15.77;;
71836;SDS011;59686;51.716;7.016;2024-03-08T04:16:01;19.57;;;15.07;;
71836;SDS011;59686;51.716;7.016;2024-03-08T04:18:27;21.27;;;15.73;;
71836;SDS011;59686;51.716;7.016;2024-03-08T04:20:53;19.13;;;15.63;;
71836;SDS011;59686;51.716;7.016;2024-03-08T04:23:19;18.20;;;15.43;;
71836;SDS011;59686;51.716;7.016;2024-03-08T04:25:45;21.10;;;15.87;;
71836;SDS011;59686;51.716;7.016;2024-03-08T04:28:10;18.43;;;15.00;;
71836;SDS011;59686;51.716;7.016;2024-03-08T04:30:39;18.87;;;15.77;;
71836;SDS011;59686;51.716;7.016;2024-03-08T04:33:05;20.73;;;16.20;;
71836;SDS011;59686;51.716;7.016;2024-03-08T04:35:34;21.53;;;15.67;;
71836;SDS011;59686;51.716;7.016;2024-03-08T04:38:00;20.20;;;15.93;;
71836;SDS011;59686;51.716;7.016;2024-03-08T04:40:26;20.37;;;16.50;;
71836;SDS011;59686;51.716;7.016;2024-03-08T04:42:51;23.40;;;16.33;;
71836;SDS011;59686;51.716;7.016;2024-03-08T04:45:17;20.40;;;16.23;;
71836;SDS011;59686;51.716;7.016;2024-03-08T04:47:43;18.00;;;15.07;;
71836;SDS011;59686;51.716;7.016;2024-03-08T04:50:09;18.87;;;16.00;;
71836;SDS011;59686;51.716;7.016;2024-03-08T04:52:35;20.47;;;15.83;;
71836;SDS011;59686;51.716;7.016;2024-03-08T04:55:03;20.10;;;16.53;;
71836;SDS011;59686;51.716;7.016;2024-03-08T04:57:30;21.13;;;16.30;;
71836;SDS011;59686;51.716;7.016;2024-03-08T04:59:57;19.40;;;15.10;;
71836;SDS011;59686;51.716;7.016;2024-03-08T05:02:24;20.80;;;16.23;;
71836;SDS011;59686;51.716;7.016;2024-03-08T05:04:49;21.83;;;15.77;;
71836;SDS011;59686;51.716;7.016;2024-03-08T05:07:15;18.77;;;15.90;;
71836;SDS011;59686;51.716;7.016;2024-03-08T05:09:41;21.33;;;16.67;;
71836;SDS011;59686;51.716;7.016;2024-03-08T05:12:07;21.07;;;15.87;;
71836;SDS011;59686;51.716;7.016;2024-03-08T05:14:33;20.17;;;16.23;;
71836;SDS011;59686;51.716;7.016;2024-03-08T05:17:00;21.97;;;16.40;;
71836;SDS011;59686;51.716;7.016;2024-03-08T05:19:26;20.03;;;16.03;;
71836;SDS011;59686;51.716;7.016;2024-03-08T05:21:51;22.03;;;16.93;;
71836;SDS011;59686;51.716;7.016;2024-03-08T05:24:17;18.83;;;15.27;;
71836;SDS011;59686;51.716;7.016;2024-03-08T05:26:43;20.53;;;16.33;;
71836;SDS011;59686;51.716;7.016;2024-03-08T05:29:09;19.80;;;16.17;;
71836;SDS011;59686;51.716;7.016;2024-03-08T05:31:42;20.60;;;16.03;;
71836;SDS011;59686;51.716;7.016;2024-03-08T05:34:18;21.50;;;15.73;;
71836;SDS011;59686;51.716;7.016;2024-03-08T05:36:47;22.43;;;16.37;;
71836;SDS011;59686;51.716;7.016;2024-03-08T05:39:16;21.93;;;16.67;;
71836;SDS011;59686;51.716;7.016;2024-03-08T05:41:43;22.23;;;17.63;;
71836;SDS011;59686;51.716;7.016;2024-03-08T05:44:09;20.07;;;16.17;;
71836;SDS011;59686;51.716;7.016;2024-03-08T05:46:36;20.80;;;16.67;;
71836;SDS011;59686;51.716;7.016;2024-03-08T05:49:02;20.13;;;16.30;;
71836;SDS011;59686;51.716;7.016;2024-03-08T05:51:31;21.83;;;17.30;;
71836;SDS011;59686;51.716;7.016;2024-03-08T05:54:01;23.10;;;16.50;;
71836;SDS011;59686;51.716;7.016;2024-03-08T05:56:28;19.93;;;16.40;;
71836;SDS011;59686;51.716;7.016;2024-03-08T05:58:54;19.90;;;16.07;;
71836;SDS011;59686;51.716;7.016;2024-03-08T06:01:20;19.40;;;16.67;;
71836;SDS011;59686;51.716;7.016;2024-03-08T06:03:46;23.20;;;16.73;;
71836;SDS011;59686;51.716;7.016;2024-03-08T06:06:14;24.00;;;17.73;;
71836;SDS011;59686;51.716;7.016;2024-03-08T06:08:40;21.47;;;17.37;;
71836;SDS011;59686;51.716;7.016;2024-03-08T06:11:08;20.33;;;16.10;;
71836;SDS011;59686;51.716;7.016;2024-03-08T06:13:34;21.10;;;16.37;;
71836;SDS011;59686;51.716;7.016;2024-03-08T06:16:00;23.03;;;16.67;;
71836;SDS011;59686;51.716;7.016;2024-03-08T06:18:29;21.77;;;17.03;;
71836;SDS011;59686;51.716;7.016;2024-03-08T06:20:55;21.73;;;16.53;;
71836;SDS011;59686;51.716;7.016;2024-03-08T06:23:21;21.20;;;16.77;;
71836;SDS011;59686;51.716;7.016;2024-03-08T06:25:47;23.37;;;17.83;;
71836;SDS011;59686;51.716;7.016;2024-03-08T06:28:13;22.07;;;17.27;;
71836;SDS011;59686;51.716;7.016;2024-03-08T06:30:39;21.17;;;16.47;;
71836;SDS011;59686;51.716;7.016;2024-03-08T06:33:05;21.30;;;17.13;;
71836;SDS011;59686;51.716;7.016;2024-03-08T06:35:32;21.60;;;17.00;;
71836;SDS011;59686;51.716;7.016;2024-03-08T06:37:58;22.57;;;17.20;;
71836;SDS011;59686;51.716;7.016;2024-03-08T06:40:24;21.90;;;17.50;;
71836;SDS011;59686;51.716;7.016;2024-03-08T06:42:49;21.97;;;16.70;;
71836;SDS011;59686;51.716;7.016;2024-03-08T06:45:17;22.17;;;17.83;;
71836;SDS011;59686;51.716;7.016;2024-03-08T06:47:46;22.77;;;18.10;;
71836;SDS011;59686;51.716;7.016;2024-03-08T06:50:12;21.00;;;17.73;;
71836;SDS011;59686;51.716;7.016;2024-03-08T06:52:38;22.77;;;18.03;;
71836;SDS011;59686;51.716;7.016;2024-03-08T06:55:05;21.43;;;17.90;;
71836;SDS011;59686;51.716;7.016;2024-03-08T06:57:31;22.20;;;17.90;;
71836;SDS011;59686;51.716;7.016;2024-03-08T06:59:57;23.23;;;18.00;;
71836;SDS011;59686;51.716;7.016;2024-03-08T07:02:23;23.13;;;17.80;;
71836;SDS011;59686;51.716;7.016;2024-03-08T07:04:51;23.53;;;17.93;;
71836;SDS011;59686;51.716;7.016;2024-03-08T07:07:18;23.33;;;18.03;;
71836;SDS011;59686;51.716;7.016;2024-03-08T07:09:46;22.23;;;17.43;;
71836;SDS011;59686;51.716;7.016;2024-03-08T07:12:11;21.20;;;17.67;;
71836;SDS011;59686;51.716;7.016;2024-03-08T07:14:38;26.53;;;19.57;;
71836;SDS011;59686;51.716;7.016;2024-03-08T07:17:06;22.27;;;18.13;;
71836;SDS011;59686;51.716;7.016;2024-03-08T07:19:34;22.17;;;16.97;;
71836;SDS011;59686;51.716;7.016;2024-03-08T07:22:00;23.43;;;17.77;;
71836;SDS011;59686;51.716;7.016;2024-03-08T07:24:28;23.07;;;18.37;;
71836;SDS011;59686;51.716;7.016;2024-03-08T07:27:12;24.20;;;18.70;;
71836;SDS011;59686;51.716;7.016;2024-03-08T07:29:38;24.10;;;17.30;;
71836;SDS011;59686;51.716;7.016;2024-03-08T07:32:04;25.33;;;19.10;;
71836;SDS011;59686;51.716;7.016;2024-03-08T07:34:50;24.03;;;18.17;;
71836;SDS011;59686;51.716;7.016;2024-03-08T07:37:16;25.20;;;19.40;;
71836;SDS011;59686;51.716;7.016;2024-03-08T07:39:43;22.57;;;18.33;;
71836;SDS011;59686;51.716;7.016;2024-03-08T07:42:08;24.23;;;18.70;;
71836;SDS011;59686;51.716;7.016;2024-03-08T07:44:35;22.37;;;18.93;;
71836;SDS011;59686;51.716;7.016;2024-03-08T07:47:01;26.13;;;19.53;;
71836;SDS011;59686;51.716;7.016;2024-03-08T07:49:28;23.80;;;18.93;;
71836;SDS011;59686;51.716;7.016;2024-03-08T07:51:55;24.73;;;19.03;;
71836;SDS011;59686;51.716;7.016;2024-03-08T07:54:22;25.73;;;19.07;;
71836;SDS011;59686;51.716;7.016;2024-03-08T07:56:48;24.47;;;18.73;;
71836;SDS011;59686;51.716;7.016;2024-03-08T07:59:13;23.73;;;17.60;;
71836;SDS011;59686;51.716;7.016;2024-03-08T08:01:39;25.60;;;19.33;;
71836;SDS011;59686;51.716;7.016;2024-03-08T08:04:05;25.00;;;18.77;;
71836;SDS011;59686;51.716;7.016;2024-03-08T08:06:31;23.57;;;19.30;;
71836;SDS011;59686;51.716;7.016;2024-03-08T08:08:58;24.47;;;19.10;;
71836;SDS011;59686;51.716;7.016;2024-03-08T08:11:27;28.33;;;19.07;;
71836;SDS011;59686;51.716;7.016;2024-03-08T08:13:54;25.03;;;19.00;;
71836;SDS011;59686;51.716;7.016;2024-03-08T08:16:20;23.90;;;18.10;;
71836;SDS011;59686;51.716;7.016;2024-03-08T08:18:48;24.93;;;19.17;;
71836;SDS011;59686;51.716;7.016;2024-03-08T08:21:14;25.47;;;18.60;;
71836;SDS011;59686;51.716;7.016;2024-03-08T08:23:40;27.37;;;20.40;;
71836;SDS011;59686;51.716;7.016;2024-03-08T08:26:06;25.00;;;18.60;;
71836;SDS011;59686;51.716;7.016;2024-03-08T08:28:32;27.27;;;18.90;;
71836;SDS011;59686;51.716;7.016;2024-03-08T08:30:58;26.27;;;19.10;;
71836;SDS011;59686;51.716;7.016;2024-03-08T08:33:24;25.27;;;18.67;;
71836;SDS011;59686;51.716;7.016;2024-03-08T08:35:50;25.00;;;19.13;;
71836;SDS011;59686;51.716;7.016;2024-03-08T08:38:19;23.80;;;18.77;;
71836;SDS011;59686;51.716;7.016;2024-03-08T08:40:45;25.03;;;18.47;;
71836;SDS011;59686;51.716;7.016;2024-03-08T08:43:12;25.50;;;19.13;;
71836;SDS011;59686;51.716;7.016;2024-03-08T08:45:39;23.20;;;18.40;;
71836;SDS011;59686;51.716;7.016;2024-03-08T08:48:05;25.17;;;19.03;;
71836;SDS011;59686;51.716;7.016;2024-03-08T08:50:31;23.73;;;18.23;;
71836;SDS011;59686;51.716;7.016;2024-03-08T08:52:57;27.87;;;19.27;;
71836;SDS011;59686;51.716;7.016;2024-03-08T08:55:23;25.20;;;19.03;;
71836;SDS011;59686;51.716;7.016;2024-03-08T08:57:52;21.53;;;17.80;;
71836;SDS011;59686;51.716;7.016;2024-03-08T09:00:21;24.90;;;18.60;;
71836;SDS011;59686;51.716;7.016;2024-03-08T09:02:49;25.60;;;19.47;;
71836;SDS011;59686;51.716;7.016;2024-03-08T09:05:16;25.67;;;18.67;;
71836;SDS011;59686;51.716;7.016;2024-03-08T09:07:42;22.23;;;18.13;;
71836;SDS011;59686;51.716;7.016;2024-03-08T09:10:09;24.17;;;18.90;;
71836;SDS011;59686;51.716;7.016;2024-03-08T09:12:37;24.57;;;19.20;;
71836;SDS011;59686;51.716;7.016;2024-03-08T09:15:04;25.57;;;19.20;;
71836;SDS011;59686;51.716;7.016;2024-03-08T09:17:33;25.67;;;19.53;;
71836;SDS011;59686;51.716;7.016;2024-03-08T09:19:59;23.67;;;18.40;;
71836;SDS011;59686;51.716;7.016;2024-03-08T09:22:25;23.60;;;18.50;;
71836;SDS011;59686;51.716;7.016;2024-03-08T09:24:51;24.83;;;19.43;;
71836;SDS011;59686;51.716;7.016;2024-03-08T09:27:16;25.47;;;18.50;;
71836;SDS011;59686;51.716;7.016;2024-03-08T09:29:43;24.47;;;17.87;;
71836;SDS011;59686;51.716;7.016;2024-03-08T09:32:09;27.97;;;19.80;;
71836;SDS011;59686;51.716;7.016;2024-03-08T09:34:37;24.83;;;18.73;;
71836;SDS011;59686;51.716;7.016;2024-03-08T09:37:02;26.50;;;18.83;;
71836;SDS011;59686;51.716;7.016;2024-03-08T09:39:29;24.30;;;18.50;;
71836;SDS011;59686;51.716;7.016;2024-03-08T09:41:55;25.53;;;18.93;;
71836;SDS011;59686;51.716;7.016;2024-03-08T09:44:21;24.43;;;18.73;;
71836;SDS011;59686;51.716;7.016;2024-03-08T09:46:48;24.87;;;18.73;;
71836;SDS011;59686;51.716;7.016;2024-03-08T09:49:18;27.63;;;18.63;;
71836;SDS011;59686;51.716;7.016;2024-03-08T09:51:43;24.43;;;18.20;;
71836;SDS011;59686;51.716;7.016;2024-03-08T09:54:09;21.80;;;17.43;;
71836;SDS011;59686;51.716;7.016;2024-03-08T09:56:36;23.17;;;17.13;;
71836;SDS011;59686;51.716;7.016;2024-03-08T09:59:05;25.17;;;18.77;;
71836;SDS011;59686;51.716;7.016;2024-03-08T10:01:37;23.83;;;17.93;;
71836;SDS011;59686;51.716;7.016;2024-03-08T10:04:04;23.50;;;18.20;;
71836;SDS011;59686;51.716;7.016;2024-03-08T10:06:30;24.67;;;17.87;;
71836;SDS011;59686;51.716;7.016;2024-03-08T10:08:56;25.07;;;17.73;;
71836;SDS011;59686;51.716;7.016;2024-03-08T10:11:22;23.10;;;17.57;;
71836;SDS011;59686;51.716;7.016;2024-03-08T10:13:49;24.47;;;17.83;;
71836;SDS011;59686;51.716;7.016;2024-03-08T10:16:15;24.00;;;17.57;;
71836;SDS011;59686;51.716;7.016;2024-03-08T10:18:42;23.47;;;17.17;;
71836;SDS011;59686;51.716;7.016;2024-03-08T10:21:10;22.50;;;17.47;;
71836;SDS011;59686;51.716;7.016;2024-03-08T10:23:36;23.13;;;17.63;;
71836;SDS011;59686;51.716;7.016;2024-03-08T10:28:50;23.57;;;17.33;;
71836;SDS011;59686;51.716;7.016;2024-03-08T10:31:20;23.23;;;17.20;;
71836;SDS011;59686;51.716;7.016;2024-03-08T10:33:46;22.90;;;17.60;;
71836;SDS011;59686;51.716;7.016;2024-03-08T10:36:13;25.00;;;17.93;;
71836;SDS011;59686;51.716;7.016;2024-03-08T10:38:39;24.37;;;17.80;;
71836;SDS011;59686;51.716;7.016;2024-03-08T10:41:09;21.67;;;16.63;;
71836;SDS011;59686;51.716;7.016;2024-03-08T10:43:45;22.70;;;16.73;;
71836;SDS011;59686;51.716;7.016;2024-03-08T10:49:17;21.63;;;16.63;;
71836;SDS011;59686;51.716;7.016;2024-03-08T10:51:49;21.40;;;16.70;;
71836;SDS011;59686;51.716;7.016;2024-03-08T10:54:16;21.10;;;16.47;;
71836;SDS011;59686;51.716;7.016;2024-03-08T10:56:45;23.07;;;16.73;;
71836;SDS011;59686;51.716;7.016;2024-03-08T10:59:14;22.23;;;16.50;;
71836;SDS011;59686;51.716;7.016;2024-03-08T11:01:40;21.73;;;16.13;;
71836;SDS011;59686;51.716;7.016;2024-03-08T11:04:06;23.70;;;16.40;;
71836;SDS011;59686;51.716;7.016;2024-03-08T11:09:49;21.03;;;16.10;;
71836;SDS011;59686;51.716;7.016;2024-03-08T11:14:45;21.97;;;16.30;;
71836;SDS011;59686;51.716;7.016;2024-03-08T11:18:00;21.90;;;16.17;;
71836;SDS011;59686;51.716;7.016;2024-03-08T11:20:04;21.93;;;16.23;;
71836;SDS011;59686;51.716;7.016;2024-03-08T11:22:41;21.63;;;15.80;;
71836;SDS011;59686;51.716;7.016;2024-03-08T11:30:36;21.10;;;15.57;;
71836;SDS011;59686;51.716;7.016;2024-03-08T11:33:03;21.37;;;16.27;;
71836;SDS011;59686;51.716;7.016;2024-03-08T11:35:29;20.97;;;15.43;;
71836;SDS011;59686;51.716;7.016;2024-03-08T11:37:57;20.63;;;16.13;;
71836;SDS011;59686;51.716;7.016;2024-03-08T11:40:25;20.30;;;15.60;;
71836;SDS011;59686;51.716;7.016;2024-03-08T11:42:51;23.33;;;16.13;;
71836;SDS011;59686;51.716;7.016;2024-03-08T11:45:19;19.57;;;15.53;;
71836;SDS011;59686;51.716;7.016;2024-03-08T11:47:46;22.97;;;16.73;;
71836;SDS011;59686;51.716;7.016;2024-03-08T11:50:13;22.37;;;15.73;;
71836;SDS011;59686;51.716;7.016;2024-03-08T11:52:39;20.27;;;16.23;;
71836;SDS011;59686;51.716;7.016;2024-03-08T11:55:05;24.03;;;16.53;;
71836;SDS011;59686;51.716;7.016;2024-03-08T11:57:31;21.03;;;16.20;;
71836;SDS011;59686;51.716;7.016;2024-03-08T11:59:57;20.87;;;15.23;;
71836;SDS011;59686;51.716;7.016;2024-03-08T12:02:32;24.10;;;16.93;;
71836;SDS011;59686;51.716;7.016;2024-03-08T12:05:03;21.57;;;16.23;;
71836;SDS011;59686;51.716;7.016;2024-03-08T12:07:31;20.33;;;15.17;;
71836;SDS011;59686;51.716;7.016;2024-03-08T12:12:46;20.67;;;16.17;;
71836;SDS011;59686;51.716;7.016;2024-03-08T12:15:12;22.23;;;16.77;;
71836;SDS011;59686;51.716;7.016;2024-03-08T12:17:40;19.43;;;14.80;;
71836;SDS011;59686;51.716;7.016;2024-03-08T12:22:50;19.10;;;15.20;;
71836;SDS011;59686;51.716;7.016;2024-03-08T12:25:18;20.33;;;15.90;;
71836;SDS011;59686;51.716;7.016;2024-03-08T12:27:45;21.83;;;17.23;;
71836;SDS011;59686;51.716;7.016;2024-03-08T12:30:15;20.07;;;15.27;;
71836;SDS011;59686;51.716;7.016;2024-03-08T12:32:46;20.20;;;16.13;;
71836;SDS011;59686;51.716;7.016;2024-03-08T12:35:20;20.03;;;15.50;;
71836;SDS011;59686;51.716;7.016;2024-03-08T12:37:48;20.30;;;15.37;;
71836;SDS011;59686;51.716;7.016;2024-03-08T12:40:28;17.47;;;14.33;;
71836;SDS011;59686;51.716;7.016;2024-03-08T12:42:57;21.33;;;15.33;;
71836;SDS011;59686;51.716;7.016;2024-03-08T12:45:24;20.40;;;15.27;;
71836;SDS011;59686;51.716;7.016;2024-03-08T12:47:55;20.83;;;15.57;;
71836;SDS011;59686;51.716;7.016;2024-03-08T12:50:22;20.27;;;15.33;;
71836;SDS011;59686;51.716;7.016;2024-03-08T12:52:48;18.70;;;14.33;;
71836;SDS011;59686;51.716;7.016;2024-03-08T12:55:14;20.17;;;15.63;;
71836;SDS011;59686;51.716;7.016;2024-03-08T12:57:41;19.20;;;14.93;;
71836;SDS011;59686;51.716;7.016;2024-03-08T13:00:08;19.23;;;14.63;;
71836;SDS011;59686;51.716;7.016;2024-03-08T13:02:48;20.47;;;15.20;;
71836;SDS011;59686;51.716;7.016;2024-03-08T13:05:16;19.23;;;14.50;;
71836;SDS011;59686;51.716;7.016;2024-03-08T13:07:43;19.47;;;15.47;;
71836;SDS011;59686;51.716;7.016;2024-03-08T13:10:14;20.03;;;15.40;;
71836;SDS011;59686;51.716;7.016;2024-03-08T13:12:43;20.00;;;15.67;;
71836;SDS011;59686;51.716;7.016;2024-03-08T13:15:09;17.90;;;14.10;;
71836;SDS011;59686;51.716;7.016;2024-03-08T13:17:48;20.27;;;14.83;;
71836;SDS011;59686;51.716;7.016;2024-03-08T13:20:14;21.53;;;15.33;;
71836;SDS011;59686;51.716;7.016;2024-03-08T13:22:45;20.73;;;15.63;;
71836;SDS011;59686;51.716;7.016;2024-03-08T13:25:12;19.13;;;14.27;;
71836;SDS011;59686;51.716;7.016;2024-03-08T13:27:41;19.27;;;14.37;;
71836;SDS011;59686;51.716;7.016;2024-03-08T13:30:11;17.07;;;13.90;;
71836;SDS011;59686;51.716;7.016;2024-03-08T13:32:43;18.97;;;14.07;;
71836;SDS011;59686;51.716;7.016;2024-03-08T13:35:10;18.20;;;13.97;;
71836;SDS011;59686;51.716;7.016;2024-03-08T13:37:40;17.40;;;13.40;;
71836;SDS011;59686;51.716;7.016;2024-03-08T13:40:07;19.33;;;14.37;;
71836;SDS011;59686;51.716;7.016;2024-03-08T13:42:40;17.97;;;13.97;;
71836;SDS011;59686;51.716;7.016;2024-03-08T13:45:08;18.70;;;14.40;;
71836;SDS011;59686;51.716;7.016;2024-03-08T13:47:37;17.83;;;13.87;;
71836;SDS011;59686;51.716;7.016;2024-03-08T13:50:09;18.53;;;13.30;;
71836;SDS011;59686;51.716;7.016;2024-03-08T13:52:46;18.03;;;13.57;;
71836;SDS011;59686;51.716;7.016;2024-03-08T13:55:18;17.90;;;13.73;;
71836;SDS011;59686;51.716;7.016;2024-03-08T13:57:44;18.53;;;13.53;;
71836;SDS011;59686;51.716;7.016;2024-03-08T14:00:12;17.87;;;13.63;;
71836;SDS011;59686;51.716;7.016;2024-03-08T14:02:38;16.10;;;13.30;;
71836;SDS011;59686;51.716;7.016;2024-03-08T14:05:06;17.77;;;14.27;;
71836;SDS011;59686;51.716;7.016;2024-03-08T14:07:34;18.30;;;13.53;;
71836;SDS011;59686;51.716;7.016;2024-03-08T14:10:00;18.43;;;14.03;;
71836;SDS011;59686;51.716;7.016;2024-03-08T14:12:25;18.23;;;13.27;;
71836;SDS011;59686;51.716;7.016;2024-03-08T14:14:52;19.57;;;14.47;;
71836;SDS011;59686;51.716;7.016;2024-03-08T14:17:18;18.30;;;13.67;;
71836;SDS011;59686;51.716;7.016;2024-03-08T14:19:43;16.97;;;13.13;;
71836;SDS011;59686;51.716;7.016;2024-03-08T14:22:09;17.93;;;13.27;;
71836;SDS011;59686;51.716;7.016;2024-03-08T14:24:42;16.97;;;13.43;;
71836;SDS011;59686;51.716;7.016;2024-03-08T14:27:09;17.37;;;14.03;;
71836;SDS011;59686;51.716;7.016;2024-03-08T14:29:37;19.17;;;14.40;;
71836;SDS011;59686;51.716;7.016;2024-03-08T14:32:04;19.00;;;13.67;;
71836;SDS011;59686;51.716;7.016;2024-03-08T14:34:31;20.03;;;14.47;;
71836;SDS011;59686;51.716;7.016;2024-03-08T14:36:59;17.33;;;14.00;;
71836;SDS011;59686;51.716;7.016;2024-03-08T14:39:25;18.20;;;13.67;;
71836;SDS011;59686;51.716;7.016;2024-03-08T14:41:54;17.70;;;13.63;;
71836;SDS011;59686;51.716;7.016;2024-03-08T14:44:21;20.67;;;14.30;;